sensor_id;sensor_type;location;lat;lon;timestamp;temperature;humidity
21238;DHT22;10777;50.828;3.264;2022-08-19T00:01:10;21.40;99.90
21238;DHT22;10777;50.828;3.264;2022-08-19T00:03:37;21.40;99.90
21238;DHT22;10777;50.828;3.264;2022-08-19T00:06:02;21.40;99.90
21238;DHT22;10777;50.828;3.264;2022-08-19T00:08:28;21.30;99.90
21238;DHT22;10777;50.828;3.264;2022-08-19T00:10:54;21.30;99.90
21238;DHT22;10777;50.828;3.264;2022-08-19T00:13:20;21.40;99.90
21238;DHT22;10777;50.828;3.264;2022-08-19T00:15:45;21.40;99.90
21238;DHT22;10777;50.828;3.264;2022-08-19T00:18:11;21.30;99.90
21238;DHT22;10777;50.828;3.264;2022-08-19T00:20:37;21.20;99.90
21238;DHT22;10777;50.828;3.264;2022-08-19T00:23:06;21.40;99.90
21238;DHT22;10777;50.828;3.264;2022-08-19T00:25:32;21.40;99.90
21238;DHT22;10777;50.828;3.264;2022-08-19T00:27:58;21.40;99.90
21238;DHT22;10777;50.828;3.264;2022-08-19T00:30:25;21.40;99.90
21238;DHT22;10777;50.828;3.264;2022-08-19T00:32:53;21.40;99.90
21238;DHT22;10777;50.828;3.264;2022-08-19T00:35:21;21.30;99.90
21238;DHT22;10777;50.828;3.264;2022-08-19T01:32:30;20.40;99.90
21238;DHT22;10777;50.828;3.264;2022-08-19T01:34:56;20.40;99.90
21238;DHT22;10777;50.828;3.264;2022-08-19T01:37:22;20.50;99.90
21238;DHT22;10777;50.828;3.264;2022-08-19T01:39:47;20.70;99.90
21238;DHT22;10777;50.828;3.264;2022-08-19T01:42:13;20.50;99.90
21238;DHT22;10777;50.828;3.264;2022-08-19T01:44:40;20.40;99.90
21238;DHT22;10777;50.828;3.264;2022-08-19T01:47:07;20.70;99.90
21238;DHT22;10777;50.828;3.264;2022-08-19T01:49:34;20.80;99.90
21238;DHT22;10777;50.828;3.264;2022-08-19T01:52:00;20.90;99.90
21238;DHT22;10777;50.828;3.264;2022-08-19T01:54:27;20.90;99.90
21238;DHT22;10777;50.828;3.264;2022-08-19T01:56:57;20.90;99.90
21238;DHT22;10777;50.828;3.264;2022-08-19T01:59:24;20.90;99.90
21238;DHT22;10777;50.828;3.264;2022-08-19T02:01:50;20.90;99.90
21238;DHT22;10777;50.828;3.264;2022-08-19T02:04:16;20.90;99.90
21238;DHT22;10777;50.828;3.264;2022-08-19T02:06:42;20.90;99.90
21238;DHT22;10777;50.828;3.264;2022-08-19T02:09:08;20.80;99.90
21238;DHT22;10777;50.828;3.264;2022-08-19T02:11:35;20.60;99.90
21238;DHT22;10777;50.828;3.264;2022-08-19T02:14:04;20.60;99.90
21238;DHT22;10777;50.828;3.264;2022-08-19T02:16:31;20.60;99.90
21238;DHT22;10777;50.828;3.264;2022-08-19T02:18:57;20.70;99.90
21238;DHT22;10777;50.828;3.264;2022-08-19T02:21:38;20.80;99.90
21238;DHT22;10777;50.828;3.264;2022-08-19T02:34:23;21.00;99.90
21238;DHT22;10777;50.828;3.264;2022-08-19T02:36:50;20.90;99.90
21238;DHT22;10777;50.828;3.264;2022-08-19T02:39:16;20.90;99.90
21238;DHT22;10777;50.828;3.264;2022-08-19T02:41:42;20.80;99.90
21238;DHT22;10777;50.828;3.264;2022-08-19T02:44:08;20.90;99.90
21238;DHT22;10777;50.828;3.264;2022-08-19T02:46:34;21.20;99.90
21238;DHT22;10777;50.828;3.264;2022-08-19T02:49:04;21.20;99.90
21238;DHT22;10777;50.828;3.264;2022-08-19T02:51:34;21.00;99.90
21238;DHT22;10777;50.828;3.264;2022-08-19T02:54:01;20.70;99.90
21238;DHT22;10777;50.828;3.264;2022-08-19T02:56:27;20.80;99.90
21238;DHT22;10777;50.828;3.264;2022-08-19T02:58:55;20.70;99.90
21238;DHT22;10777;50.828;3.264;2022-08-19T03:01:23;20.70;99.90
21238;DHT22;10777;50.828;3.264;2022-08-19T03:03:49;20.80;99.90
21238;DHT22;10777;50.828;3.264;2022-08-19T03:06:17;20.70;99.90
21238;DHT22;10777;50.828;3.264;2022-08-19T03:08:44;20.70;99.90
21238;DHT22;10777;50.828;3.264;2022-08-19T03:11:15;21.00;99.90
21238;DHT22;10777;50.828;3.264;2022-08-19T03:13:41;21.10;99.90
21238;DHT22;10777;50.828;3.264;2022-08-19T03:16:09;21.10;99.90
21238;DHT22;10777;50.828;3.264;2022-08-19T03:18:34;20.90;99.90
21238;DHT22;10777;50.828;3.264;2022-08-19T03:21:00;20.90;99.90
21238;DHT22;10777;50.828;3.264;2022-08-19T03:23:26;21.00;99.90
21238;DHT22;10777;50.828;3.264;2022-08-19T03:25:52;20.90;99.90
21238;DHT22;10777;50.828;3.264;2022-08-19T03:28:20;21.00;99.90
21238;DHT22;10777;50.828;3.264;2022-08-19T03:31:04;20.80;99.90
21238;DHT22;10777;50.828;3.264;2022-08-19T03:33:35;20.90;99.90
21238;DHT22;10777;50.828;3.264;2022-08-19T03:36:11;20.80;99.90
21238;DHT22;10777;50.828;3.264;2022-08-19T03:38:40;20.80;99.90
21238;DHT22;10777;50.828;3.264;2022-08-19T03:41:09;20.70;99.90
21238;DHT22;10777;50.828;3.264;2022-08-19T03:43:37;20.60;99.90
21238;DHT22;10777;50.828;3.264;2022-08-19T03:46:08;20.90;99.90
21238;DHT22;10777;50.828;3.264;2022-08-19T03:48:35;20.60;99.90
21238;DHT22;10777;50.828;3.264;2022-08-19T03:51:02;20.70;99.90
21238;DHT22;10777;50.828;3.264;2022-08-19T03:53:29;20.60;99.90
21238;DHT22;10777;50.828;3.264;2022-08-19T03:55:57;20.70;99.90
21238;DHT22;10777;50.828;3.264;2022-08-19T03:58:25;20.70;99.90
21238;DHT22;10777;50.828;3.264;2022-08-19T04:00:53;20.60;99.90
21238;DHT22;10777;50.828;3.264;2022-08-19T04:03:19;20.30;99.90
21238;DHT22;10777;50.828;3.264;2022-08-19T04:05:45;20.40;99.90
21238;DHT22;10777;50.828;3.264;2022-08-19T04:08:12;20.30;99.90
21238;DHT22;10777;50.828;3.264;2022-08-19T04:10:38;20.50;99.90
21238;DHT22;10777;50.828;3.264;2022-08-19T04:13:06;20.50;99.90
21238;DHT22;10777;50.828;3.264;2022-08-19T04:15:32;20.60;99.90
21238;DHT22;10777;50.828;3.264;2022-08-19T04:18:04;20.70;99.90
21238;DHT22;10777;50.828;3.264;2022-08-19T04:20:38;20.80;99.90
21238;DHT22;10777;50.828;3.264;2022-08-19T04:23:03;20.80;99.90
21238;DHT22;10777;50.828;3.264;2022-08-19T04:25:36;21.00;99.90
21238;DHT22;10777;50.828;3.264;2022-08-19T04:28:02;21.10;99.90
21238;DHT22;10777;50.828;3.264;2022-08-19T04:30:28;21.20;99.90
21238;DHT22;10777;50.828;3.264;2022-08-19T04:32:54;21.20;99.90
21238;DHT22;10777;50.828;3.264;2022-08-19T04:35:19;21.10;99.90
21238;DHT22;10777;50.828;3.264;2022-08-19T04:37:45;21.00;99.90
21238;DHT22;10777;50.828;3.264;2022-08-19T04:40:11;20.80;99.90
21238;DHT22;10777;50.828;3.264;2022-08-19T04:42:57;20.60;99.90
21238;DHT22;10777;50.828;3.264;2022-08-19T04:45:22;20.80;99.90
21238;DHT22;10777;50.828;3.264;2022-08-19T04:47:48;20.90;99.90
21238;DHT22;10777;50.828;3.264;2022-08-19T04:50:14;20.80;99.90
21238;DHT22;10777;50.828;3.264;2022-08-19T04:52:40;21.10;99.90
21238;DHT22;10777;50.828;3.264;2022-08-19T04:55:09;20.90;99.90
21238;DHT22;10777;50.828;3.264;2022-08-19T04:57:36;21.00;99.90
21238;DHT22;10777;50.828;3.264;2022-08-19T05:00:06;21.00;99.90
21238;DHT22;10777;50.828;3.264;2022-08-19T05:02:33;21.00;99.90
21238;DHT22;10777;50.828;3.264;2022-08-19T05:04:59;20.90;99.90
21238;DHT22;10777;50.828;3.264;2022-08-19T05:07:26;20.70;99.90
21238;DHT22;10777;50.828;3.264;2022-08-19T05:15:03;21.10;99.90
21238;DHT22;10777;50.828;3.264;2022-08-19T05:25:12;21.30;99.90
21238;DHT22;10777;50.828;3.264;2022-08-19T05:27:40;21.30;99.90
21238;DHT22;10777;50.828;3.264;2022-08-19T05:30:07;21.40;99.90
21238;DHT22;10777;50.828;3.264;2022-08-19T05:32:32;21.40;99.90
21238;DHT22;10777;50.828;3.264;2022-08-19T05:34:58;21.40;99.90
21238;DHT22;10777;50.828;3.264;2022-08-19T05:37:24;21.50;99.90
21238;DHT22;10777;50.828;3.264;2022-08-19T05:39:52;21.70;99.90
21238;DHT22;10777;50.828;3.264;2022-08-19T05:42:20;21.70;99.90
21238;DHT22;10777;50.828;3.264;2022-08-19T05:44:48;21.80;99.90
21238;DHT22;10777;50.828;3.264;2022-08-19T05:47:15;22.10;99.90
21238;DHT22;10777;50.828;3.264;2022-08-19T05:49:41;21.90;99.90
21238;DHT22;10777;50.828;3.264;2022-08-19T05:52:11;21.70;99.90
21238;DHT22;10777;50.828;3.264;2022-08-19T05:54:38;21.60;99.90
21238;DHT22;10777;50.828;3.264;2022-08-19T05:57:07;21.70;99.90
21238;DHT22;10777;50.828;3.264;2022-08-19T05:59:32;21.60;99.90
21238;DHT22;10777;50.828;3.264;2022-08-19T06:02:00;21.60;99.90
21238;DHT22;10777;50.828;3.264;2022-08-19T06:04:26;21.80;99.90
21238;DHT22;10777;50.828;3.264;2022-08-19T06:06:54;21.90;99.90
21238;DHT22;10777;50.828;3.264;2022-08-19T06:09:20;22.00;99.90
21238;DHT22;10777;50.828;3.264;2022-08-19T06:11:50;21.90;99.90
21238;DHT22;10777;50.828;3.264;2022-08-19T06:14:21;21.90;99.90
21238;DHT22;10777;50.828;3.264;2022-08-19T06:16:47;22.10;99.90
21238;DHT22;10777;50.828;3.264;2022-08-19T06:19:16;22.10;99.90
21238;DHT22;10777;50.828;3.264;2022-08-19T06:21:45;21.80;99.90
21238;DHT22;10777;50.828;3.264;2022-08-19T06:24:14;21.80;99.90
21238;DHT22;10777;50.828;3.264;2022-08-19T06:26:43;21.90;99.90
21238;DHT22;10777;50.828;3.264;2022-08-19T06:29:11;22.20;99.90
21238;DHT22;10777;50.828;3.264;2022-08-19T06:31:40;22.20;99.90
21238;DHT22;10777;50.828;3.264;2022-08-19T06:34:06;22.10;99.90
21238;DHT22;10777;50.828;3.264;2022-08-19T06:36:36;22.10;99.90
21238;DHT22;10777;50.828;3.264;2022-08-19T06:39:08;22.10;99.90
21238;DHT22;10777;50.828;3.264;2022-08-19T06:41:36;22.10;99.90
21238;DHT22;10777;50.828;3.264;2022-08-19T06:44:03;22.20;99.90
21238;DHT22;10777;50.828;3.264;2022-08-19T06:46:30;22.20;99.90
21238;DHT22;10777;50.828;3.264;2022-08-19T06:48:56;22.10;99.90
21238;DHT22;10777;50.828;3.264;2022-08-19T06:51:22;22.40;99.90
21238;DHT22;10777;50.828;3.264;2022-08-19T06:53:50;22.40;99.90
21238;DHT22;10777;50.828;3.264;2022-08-19T06:56:19;22.30;99.90
21238;DHT22;10777;50.828;3.264;2022-08-19T06:58:46;22.40;99.90
21238;DHT22;10777;50.828;3.264;2022-08-19T07:01:16;22.50;99.90
21238;DHT22;10777;50.828;3.264;2022-08-19T07:03:42;22.50;99.90
21238;DHT22;10777;50.828;3.264;2022-08-19T07:06:11;22.50;99.90
21238;DHT22;10777;50.828;3.264;2022-08-19T07:08:38;22.50;99.90
21238;DHT22;10777;50.828;3.264;2022-08-19T07:11:07;22.80;99.90
21238;DHT22;10777;50.828;3.264;2022-08-19T07:13:34;22.80;99.90
21238;DHT22;10777;50.828;3.264;2022-08-19T07:16:12;22.80;99.90
21238;DHT22;10777;50.828;3.264;2022-08-19T07:18:39;22.80;99.90
21238;DHT22;10777;50.828;3.264;2022-08-19T07:21:08;22.60;99.90
21238;DHT22;10777;50.828;3.264;2022-08-19T07:23:35;22.40;99.90
21238;DHT22;10777;50.828;3.264;2022-08-19T07:26:08;22.50;99.90
21238;DHT22;10777;50.828;3.264;2022-08-19T07:28:33;22.60;99.90
21238;DHT22;10777;50.828;3.264;2022-08-19T07:31:00;22.80;99.90
21238;DHT22;10777;50.828;3.264;2022-08-19T07:33:27;23.00;99.90
21238;DHT22;10777;50.828;3.264;2022-08-19T07:35:55;23.00;99.90
21238;DHT22;10777;50.828;3.264;2022-08-19T07:38:21;23.00;99.90
21238;DHT22;10777;50.828;3.264;2022-08-19T07:40:47;22.90;99.90
21238;DHT22;10777;50.828;3.264;2022-08-19T07:43:14;23.00;99.90
21238;DHT22;10777;50.828;3.264;2022-08-19T07:45:41;23.00;99.90
21238;DHT22;10777;50.828;3.264;2022-08-19T07:48:08;22.90;99.90
21238;DHT22;10777;50.828;3.264;2022-08-19T07:50:33;23.00;99.90
21238;DHT22;10777;50.828;3.264;2022-08-19T07:53:00;23.00;99.90
21238;DHT22;10777;50.828;3.264;2022-08-19T07:55:26;22.90;99.90
21238;DHT22;10777;50.828;3.264;2022-08-19T07:57:52;22.80;99.90
21238;DHT22;10777;50.828;3.264;2022-08-19T08:00:19;22.90;99.90
21238;DHT22;10777;50.828;3.264;2022-08-19T08:02:45;23.00;99.90
21238;DHT22;10777;50.828;3.264;2022-08-19T08:05:11;23.10;99.90
21238;DHT22;10777;50.828;3.264;2022-08-19T08:07:56;23.10;99.90
21238;DHT22;10777;50.828;3.264;2022-08-19T08:10:42;23.10;99.90
21238;DHT22;10777;50.828;3.264;2022-08-19T08:13:08;23.20;99.90
21238;DHT22;10777;50.828;3.264;2022-08-19T08:15:34;23.20;99.90
21238;DHT22;10777;50.828;3.264;2022-08-19T08:18:00;23.50;99.90
21238;DHT22;10777;50.828;3.264;2022-08-19T08:20:26;23.60;99.90
21238;DHT22;10777;50.828;3.264;2022-08-19T08:22:51;23.70;99.90
21238;DHT22;10777;50.828;3.264;2022-08-19T08:25:37;23.70;99.90
21238;DHT22;10777;50.828;3.264;2022-08-19T08:28:04;23.70;99.90
21238;DHT22;10777;50.828;3.264;2022-08-19T08:30:31;23.70;99.90
21238;DHT22;10777;50.828;3.264;2022-08-19T08:32:58;23.80;99.90
21238;DHT22;10777;50.828;3.264;2022-08-19T08:35:24;23.90;99.90
21238;DHT22;10777;50.828;3.264;2022-08-19T08:37:53;23.90;99.90
21238;DHT22;10777;50.828;3.264;2022-08-19T08:40:48;24.00;99.90
21238;DHT22;10777;50.828;3.264;2022-08-19T08:43:24;23.90;99.90
21238;DHT22;10777;50.828;3.264;2022-08-19T08:46:00;23.70;99.90
21238;DHT22;10777;50.828;3.264;2022-08-19T08:48:42;24.10;99.90
21238;DHT22;10777;50.828;3.264;2022-08-19T08:51:18;24.70;99.90
21238;DHT22;10777;50.828;3.264;2022-08-19T08:53:48;24.00;99.90
21238;DHT22;10777;50.828;3.264;2022-08-19T08:56:16;24.30;99.90
21238;DHT22;10777;50.828;3.264;2022-08-19T08:58:51;24.00;99.90
21238;DHT22;10777;50.828;3.264;2022-08-19T09:01:21;24.10;99.90
21238;DHT22;10777;50.828;3.264;2022-08-19T09:03:47;24.10;99.90
21238;DHT22;10777;50.828;3.264;2022-08-19T09:06:32;24.30;99.90
21238;DHT22;10777;50.828;3.264;2022-08-19T09:09:18;24.40;99.90
21238;DHT22;10777;50.828;3.264;2022-08-19T09:12:10;24.30;99.90
21238;DHT22;10777;50.828;3.264;2022-08-19T09:17:32;24.30;99.90
21238;DHT22;10777;50.828;3.264;2022-08-19T09:20:18;24.20;99.90
21238;DHT22;10777;50.828;3.264;2022-08-19T09:22:45;24.40;99.90
21238;DHT22;10777;50.828;3.264;2022-08-19T09:25:15;24.50;99.90
21238;DHT22;10777;50.828;3.264;2022-08-19T09:27:42;24.50;99.90
21238;DHT22;10777;50.828;3.264;2022-08-19T09:30:11;24.60;99.90
21238;DHT22;10777;50.828;3.264;2022-08-19T09:32:37;24.60;99.90
21238;DHT22;10777;50.828;3.264;2022-08-19T09:35:04;24.70;99.90
21238;DHT22;10777;50.828;3.264;2022-08-19T09:37:31;24.70;99.90
21238;DHT22;10777;50.828;3.264;2022-08-19T09:39:57;24.60;99.90
21238;DHT22;10777;50.828;3.264;2022-08-19T09:42:23;24.90;99.90
21238;DHT22;10777;50.828;3.264;2022-08-19T09:44:49;24.80;99.90
21238;DHT22;10777;50.828;3.264;2022-08-19T09:47:15;24.80;99.90
21238;DHT22;10777;50.828;3.264;2022-08-19T09:49:41;24.80;99.90
21238;DHT22;10777;50.828;3.264;2022-08-19T09:52:10;24.70;99.90
21238;DHT22;10777;50.828;3.264;2022-08-19T09:54:38;24.80;99.90
21238;DHT22;10777;50.828;3.264;2022-08-19T09:57:04;25.00;99.90
21238;DHT22;10777;50.828;3.264;2022-08-19T09:59:30;25.00;99.90
21238;DHT22;10777;50.828;3.264;2022-08-19T10:01:56;25.00;99.90
21238;DHT22;10777;50.828;3.264;2022-08-19T10:04:22;25.10;99.90
21238;DHT22;10777;50.828;3.264;2022-08-19T10:06:49;25.30;99.90
21238;DHT22;10777;50.828;3.264;2022-08-19T10:09:17;25.40;99.90
21238;DHT22;10777;50.828;3.264;2022-08-19T10:11:44;25.40;99.90
21238;DHT22;10777;50.828;3.264;2022-08-19T10:14:14;25.20;99.90
21238;DHT22;10777;50.828;3.264;2022-08-19T10:16:40;25.10;99.90
21238;DHT22;10777;50.828;3.264;2022-08-19T10:19:09;25.20;99.90
21238;DHT22;10777;50.828;3.264;2022-08-19T10:21:35;25.20;99.90
21238;DHT22;10777;50.828;3.264;2022-08-19T10:24:04;25.40;99.90
21238;DHT22;10777;50.828;3.264;2022-08-19T10:26:35;25.30;99.90
21238;DHT22;10777;50.828;3.264;2022-08-19T10:29:04;25.00;99.90
21238;DHT22;10777;50.828;3.264;2022-08-19T10:31:32;25.30;99.90
21238;DHT22;10777;50.828;3.264;2022-08-19T10:33:59;25.30;99.90
21238;DHT22;10777;50.828;3.264;2022-08-19T10:36:29;25.40;99.90
21238;DHT22;10777;50.828;3.264;2022-08-19T10:38:57;25.30;99.90
21238;DHT22;10777;50.828;3.264;2022-08-19T10:41:27;25.10;99.90
21238;DHT22;10777;50.828;3.264;2022-08-19T10:43:54;25.20;99.90
21238;DHT22;10777;50.828;3.264;2022-08-19T10:46:22;25.10;99.90
21238;DHT22;10777;50.828;3.264;2022-08-19T10:48:49;25.20;99.90
21238;DHT22;10777;50.828;3.264;2022-08-19T10:51:16;25.10;99.90
21238;DHT22;10777;50.828;3.264;2022-08-19T10:54:02;25.00;99.90
21238;DHT22;10777;50.828;3.264;2022-08-19T10:56:29;25.20;99.90
21238;DHT22;10777;50.828;3.264;2022-08-19T10:59:16;25.20;99.90
21238;DHT22;10777;50.828;3.264;2022-08-19T11:01:44;25.30;99.90
21238;DHT22;10777;50.828;3.264;2022-08-19T11:04:10;25.20;99.90
21238;DHT22;10777;50.828;3.264;2022-08-19T11:06:40;25.10;99.90
21238;DHT22;10777;50.828;3.264;2022-08-19T11:09:07;24.90;99.90
21238;DHT22;10777;50.828;3.264;2022-08-19T11:11:34;24.80;99.90
21238;DHT22;10777;50.828;3.264;2022-08-19T11:14:09;24.80;99.90
21238;DHT22;10777;50.828;3.264;2022-08-19T11:16:35;25.10;99.90
21238;DHT22;10777;50.828;3.264;2022-08-19T11:19:03;25.30;99.90
21238;DHT22;10777;50.828;3.264;2022-08-19T11:21:33;25.50;99.90
21238;DHT22;10777;50.828;3.264;2022-08-19T11:24:01;25.50;99.90
21238;DHT22;10777;50.828;3.264;2022-08-19T11:26:29;25.30;99.90
21238;DHT22;10777;50.828;3.264;2022-08-19T11:28:57;25.40;99.90
21238;DHT22;10777;50.828;3.264;2022-08-19T11:31:27;25.60;99.90
21238;DHT22;10777;50.828;3.264;2022-08-19T11:33:55;25.90;99.90
21238;DHT22;10777;50.828;3.264;2022-08-19T11:36:21;26.10;99.90
21238;DHT22;10777;50.828;3.264;2022-08-19T11:38:49;26.20;99.90
21238;DHT22;10777;50.828;3.264;2022-08-19T11:41:17;26.50;99.90
21238;DHT22;10777;50.828;3.264;2022-08-19T11:43:43;26.60;99.90
21238;DHT22;10777;50.828;3.264;2022-08-19T11:46:12;26.60;99.90
21238;DHT22;10777;50.828;3.264;2022-08-19T11:48:38;26.50;99.90
21238;DHT22;10777;50.828;3.264;2022-08-19T11:51:08;26.40;99.90
21238;DHT22;10777;50.828;3.264;2022-08-19T11:53:35;26.60;99.90
21238;DHT22;10777;50.828;3.264;2022-08-19T11:56:01;26.60;99.90
21238;DHT22;10777;50.828;3.264;2022-08-19T11:58:27;26.60;99.90
21238;DHT22;10777;50.828;3.264;2022-08-19T12:00:54;26.60;99.90
21238;DHT22;10777;50.828;3.264;2022-08-19T12:03:20;26.50;99.90
21238;DHT22;10777;50.828;3.264;2022-08-19T12:05:46;26.30;99.90
21238;DHT22;10777;50.828;3.264;2022-08-19T12:08:12;26.10;99.90
21238;DHT22;10777;50.828;3.264;2022-08-19T12:10:39;25.70;99.90
21238;DHT22;10777;50.828;3.264;2022-08-19T12:13:07;25.80;99.90
21238;DHT22;10777;50.828;3.264;2022-08-19T12:15:38;25.70;99.90
21238;DHT22;10777;50.828;3.264;2022-08-19T12:18:06;25.80;99.90
21238;DHT22;10777;50.828;3.264;2022-08-19T12:20:35;25.50;99.90
21238;DHT22;10777;50.828;3.264;2022-08-19T12:23:02;25.80;99.90
21238;DHT22;10777;50.828;3.264;2022-08-19T12:25:28;25.90;99.90
21238;DHT22;10777;50.828;3.264;2022-08-19T12:27:53;26.00;99.90
21238;DHT22;10777;50.828;3.264;2022-08-19T12:30:20;26.10;99.90
21238;DHT22;10777;50.828;3.264;2022-08-19T12:32:46;26.30;99.90
21238;DHT22;10777;50.828;3.264;2022-08-19T12:35:12;26.30;99.90
21238;DHT22;10777;50.828;3.264;2022-08-19T12:37:39;26.50;99.90
21238;DHT22;10777;50.828;3.264;2022-08-19T12:40:10;26.60;99.90
21238;DHT22;10777;50.828;3.264;2022-08-19T12:42:38;26.60;99.90
21238;DHT22;10777;50.828;3.264;2022-08-19T12:45:07;27.00;99.90
21238;DHT22;10777;50.828;3.264;2022-08-19T12:47:33;27.20;99.90
21238;DHT22;10777;50.828;3.264;2022-08-19T12:49:58;27.40;99.90
21238;DHT22;10777;50.828;3.264;2022-08-19T12:52:25;27.40;99.90
21238;DHT22;10777;50.828;3.264;2022-08-19T12:54:53;27.70;99.90
21238;DHT22;10777;50.828;3.264;2022-08-19T12:57:20;27.60;99.90
21238;DHT22;10777;50.828;3.264;2022-08-19T12:59:46;27.20;99.90
21238;DHT22;10777;50.828;3.264;2022-08-19T13:02:11;27.00;99.90
21238;DHT22;10777;50.828;3.264;2022-08-19T13:04:37;26.90;99.90
21238;DHT22;10777;50.828;3.264;2022-08-19T13:07:07;26.90;99.90
21238;DHT22;10777;50.828;3.264;2022-08-19T13:09:34;26.70;99.90
21238;DHT22;10777;50.828;3.264;2022-08-19T13:12:00;26.60;99.90
21238;DHT22;10777;50.828;3.264;2022-08-19T13:14:28;26.50;99.90
21238;DHT22;10777;50.828;3.264;2022-08-19T13:16:56;26.30;99.90
21238;DHT22;10777;50.828;3.264;2022-08-19T13:19:22;26.30;99.90
21238;DHT22;10777;50.828;3.264;2022-08-19T13:21:50;27.10;99.90
21238;DHT22;10777;50.828;3.264;2022-08-19T13:24:17;28.30;99.90
21238;DHT22;10777;50.828;3.264;2022-08-19T13:26:42;28.90;99.90
21238;DHT22;10777;50.828;3.264;2022-08-19T13:29:09;28.80;99.90
21238;DHT22;10777;50.828;3.264;2022-08-19T13:31:55;28.60;99.90
21238;DHT22;10777;50.828;3.264;2022-08-19T13:34:40;28.10;99.90
21238;DHT22;10777;50.828;3.264;2022-08-19T13:37:06;27.90;99.90
21238;DHT22;10777;50.828;3.264;2022-08-19T13:39:33;27.80;99.90
21238;DHT22;10777;50.828;3.264;2022-08-19T13:42:01;27.60;99.90
21238;DHT22;10777;50.828;3.264;2022-08-19T13:44:28;27.90;99.90
21238;DHT22;10777;50.828;3.264;2022-08-19T13:47:04;28.50;99.90
21238;DHT22;10777;50.828;3.264;2022-08-19T13:49:33;28.80;99.90
21238;DHT22;10777;50.828;3.264;2022-08-19T13:51:59;28.40;99.90
21238;DHT22;10777;50.828;3.264;2022-08-19T13:54:25;28.10;99.90
21238;DHT22;10777;50.828;3.264;2022-08-19T13:56:52;27.80;99.90
21238;DHT22;10777;50.828;3.264;2022-08-19T13:59:18;28.40;99.90
21238;DHT22;10777;50.828;3.264;2022-08-19T14:01:44;29.10;99.90
21238;DHT22;10777;50.828;3.264;2022-08-19T14:04:10;30.10;99.90
21238;DHT22;10777;50.828;3.264;2022-08-19T14:06:36;30.50;99.90
21238;DHT22;10777;50.828;3.264;2022-08-19T14:09:03;31.60;99.90
21238;DHT22;10777;50.828;3.264;2022-08-19T14:15:06;33.40;99.90
21238;DHT22;10777;50.828;3.264;2022-08-19T14:17:33;33.40;99.90
21238;DHT22;10777;50.828;3.264;2022-08-19T14:20:03;34.50;99.90
21238;DHT22;10777;50.828;3.264;2022-08-19T14:22:34;35.30;99.90
21238;DHT22;10777;50.828;3.264;2022-08-19T14:24:59;34.20;99.90
21238;DHT22;10777;50.828;3.264;2022-08-19T14:27:25;34.20;99.90
21238;DHT22;10777;50.828;3.264;2022-08-19T14:29:52;33.80;99.90
21238;DHT22;10777;50.828;3.264;2022-08-19T14:32:18;33.50;99.90
21238;DHT22;10777;50.828;3.264;2022-08-19T14:34:44;33.30;99.90
21238;DHT22;10777;50.828;3.264;2022-08-19T14:37:12;32.60;99.90
21238;DHT22;10777;50.828;3.264;2022-08-19T14:39:40;31.80;99.90
21238;DHT22;10777;50.828;3.264;2022-08-19T14:42:08;31.00;99.90
21238;DHT22;10777;50.828;3.264;2022-08-19T14:44:35;30.60;99.90
21238;DHT22;10777;50.828;3.264;2022-08-19T14:47:01;30.30;99.90
21238;DHT22;10777;50.828;3.264;2022-08-19T14:49:27;29.90;99.90
21238;DHT22;10777;50.828;3.264;2022-08-19T14:51:52;29.70;99.90
21238;DHT22;10777;50.828;3.264;2022-08-19T14:54:18;29.40;99.90
21238;DHT22;10777;50.828;3.264;2022-08-19T14:56:44;29.20;99.90
21238;DHT22;10777;50.828;3.264;2022-08-19T14:59:10;28.80;99.90
21238;DHT22;10777;50.828;3.264;2022-08-19T15:01:36;28.50;99.90
21238;DHT22;10777;50.828;3.264;2022-08-19T15:04:02;28.10;99.90
21238;DHT22;10777;50.828;3.264;2022-08-19T15:06:32;27.90;99.90
21238;DHT22;10777;50.828;3.264;2022-08-19T15:08:59;28.00;99.90
21238;DHT22;10777;50.828;3.264;2022-08-19T15:11:27;28.00;99.90
21238;DHT22;10777;50.828;3.264;2022-08-19T15:13:55;27.90;99.90
21238;DHT22;10777;50.828;3.264;2022-08-19T15:16:22;27.80;99.90
21238;DHT22;10777;50.828;3.264;2022-08-19T15:18:52;27.70;99.90
21238;DHT22;10777;50.828;3.264;2022-08-19T15:21:18;27.60;99.90
21238;DHT22;10777;50.828;3.264;2022-08-19T15:23:45;27.60;99.90
21238;DHT22;10777;50.828;3.264;2022-08-19T15:26:11;27.50;99.90
21238;DHT22;10777;50.828;3.264;2022-08-19T15:28:38;27.30;99.90
21238;DHT22;10777;50.828;3.264;2022-08-19T15:31:04;27.20;99.90
21238;DHT22;10777;50.828;3.264;2022-08-19T15:33:32;26.90;99.90
21238;DHT22;10777;50.828;3.264;2022-08-19T15:36:00;26.50;99.90
21238;DHT22;10777;50.828;3.264;2022-08-19T15:38:26;26.40;99.90
21238;DHT22;10777;50.828;3.264;2022-08-19T15:40:52;26.40;99.90
21238;DHT22;10777;50.828;3.264;2022-08-19T15:43:19;26.40;99.90
21238;DHT22;10777;50.828;3.264;2022-08-19T15:45:46;26.40;99.90
21238;DHT22;10777;50.828;3.264;2022-08-19T15:48:12;26.40;99.90
21238;DHT22;10777;50.828;3.264;2022-08-19T15:50:38;26.50;99.90
21238;DHT22;10777;50.828;3.264;2022-08-19T15:53:08;26.50;99.90
21238;DHT22;10777;50.828;3.264;2022-08-19T15:55:42;26.40;99.90
21238;DHT22;10777;50.828;3.264;2022-08-19T15:58:10;26.40;99.90
21238;DHT22;10777;50.828;3.264;2022-08-19T16:00:58;26.40;99.90
21238;DHT22;10777;50.828;3.264;2022-08-19T16:03:44;26.30;99.90
21238;DHT22;10777;50.828;3.264;2022-08-19T16:06:31;26.40;99.90
21238;DHT22;10777;50.828;3.264;2022-08-19T16:09:01;26.20;99.90
21238;DHT22;10777;50.828;3.264;2022-08-19T16:11:30;26.20;99.90
21238;DHT22;10777;50.828;3.264;2022-08-19T16:13:58;26.40;99.90
21238;DHT22;10777;50.828;3.264;2022-08-19T16:16:27;26.20;99.90
21238;DHT22;10777;50.828;3.264;2022-08-19T16:18:55;26.10;99.90
21238;DHT22;10777;50.828;3.264;2022-08-19T16:21:22;25.80;99.90
21238;DHT22;10777;50.828;3.264;2022-08-19T16:23:49;25.70;99.90
21238;DHT22;10777;50.828;3.264;2022-08-19T16:26:16;25.80;99.90
21238;DHT22;10777;50.828;3.264;2022-08-19T16:28:45;26.00;99.90
21238;DHT22;10777;50.828;3.264;2022-08-19T16:31:12;25.90;99.90
21238;DHT22;10777;50.828;3.264;2022-08-19T16:33:38;26.00;99.90
21238;DHT22;10777;50.828;3.264;2022-08-19T16:36:05;25.80;99.90
21238;DHT22;10777;50.828;3.264;2022-08-19T16:38:32;25.70;99.90
21238;DHT22;10777;50.828;3.264;2022-08-19T16:40:58;25.80;99.90
21238;DHT22;10777;50.828;3.264;2022-08-19T16:43:28;25.80;99.90
21238;DHT22;10777;50.828;3.264;2022-08-19T16:45:55;25.80;99.90
21238;DHT22;10777;50.828;3.264;2022-08-19T16:48:25;25.70;99.90
21238;DHT22;10777;50.828;3.264;2022-08-19T16:50:56;25.60;99.90
21238;DHT22;10777;50.828;3.264;2022-08-19T16:53:23;25.30;99.90
21238;DHT22;10777;50.828;3.264;2022-08-19T16:55:54;25.20;99.90
21238;DHT22;10777;50.828;3.264;2022-08-19T16:58:22;25.20;99.90
21238;DHT22;10777;50.828;3.264;2022-08-19T17:00:50;25.40;99.90